createdAt,value
2018-12-18T00:00:13.231Z,50.05
2018-12-18T00:02:45.242Z,56.98
2018-12-18T00:05:20.908Z,56.92
2018-12-18T00:07:48.858Z,57.05
2018-12-18T00:10:16.776Z,54.88
2018-12-18T00:12:44.706Z,57.95
2018-12-18T00:15:12.647Z,56.90
2018-12-18T00:17:40.584Z,57.43
2018-12-18T00:20:08.573Z,48.33
2018-12-18T00:22:36.586Z,54.93
2018-12-18T00:25:05.422Z,59.27
2018-12-18T00:27:33.496Z,60.08
2018-12-18T00:30:01.492Z,54.18
2018-12-18T00:32:29.474Z,51.50
2018-12-18T00:34:57.384Z,52.17
2018-12-18T00:37:25.365Z,51.98
2018-12-18T00:39:53.329Z,57.10
2018-12-18T00:42:21.337Z,54.90
2018-12-18T00:44:49.272Z,61.00
2018-12-18T00:47:17.349Z,45.50
2018-12-18T00:49:45.286Z,51.05
2018-12-18T00:52:13.352Z,57.38
2018-12-18T00:54:41.370Z,48.58
2018-12-18T00:57:09.339Z,57.90
2018-12-18T00:59:37.261Z,53.90
2018-12-18T01:02:05.313Z,50.17
2018-12-18T01:04:33.278Z,51.25
2018-12-18T01:07:01.234Z,54.65
2018-12-18T01:09:29.213Z,53.45
2018-12-18T01:11:57.179Z,48.92
2018-12-18T01:14:25.137Z,59.20
2018-12-18T01:16:53.069Z,53.52
2018-12-18T01:19:20.995Z,52.43
2018-12-18T01:21:48.978Z,49.10
2018-12-18T01:24:16.909Z,60.20
2018-12-18T01:26:44.902Z,59.73
2018-12-18T01:29:12.841Z,50.98
2018-12-18T01:31:40.821Z,51.70
2018-12-18T01:34:08.747Z,48.33
2018-12-18T01:36:36.763Z,44.27
2018-12-18T01:39:05.539Z,54.08
2018-12-18T01:41:33.526Z,54.05
2018-12-18T01:44:01.496Z,52.08
2018-12-18T01:46:29.449Z,50.90
2018-12-18T01:48:57.449Z,60.33
2018-12-18T01:51:25.512Z,57.43
2018-12-18T01:53:53.447Z,51.37
2018-12-18T01:56:21.469Z,55.05
2018-12-18T01:58:49.426Z,51.28
2018-12-18T02:01:17.366Z,46.77
2018-12-18T02:03:45.346Z,57.08
2018-12-18T02:06:13.291Z,60.90
2018-12-18T02:08:41.222Z,54.38
2018-12-18T02:11:09.167Z,56.00
2018-12-18T02:13:37.132Z,52.03
2018-12-18T02:16:05.115Z,50.70
2018-12-18T02:18:33.036Z,53.48
2018-12-18T02:21:00.987Z,52.30
2018-12-18T02:23:28.910Z,52.48
2018-12-18T02:25:56.901Z,56.80
2018-12-18T02:28:24.849Z,56.40
2018-12-18T02:30:52.797Z,62.70
2018-12-18T02:33:20.758Z,52.27
2018-12-18T02:35:48.766Z,57.83
2018-12-18T02:38:16.682Z,55.85
2018-12-18T02:40:44.645Z,60.58
2018-12-18T02:43:12.705Z,72.12
2018-12-18T02:45:40.671Z,66.42
2018-12-18T02:48:08.658Z,64.17
2018-12-18T02:50:37.729Z,68.02
2018-12-18T02:53:05.689Z,65.22
2018-12-18T02:55:33.690Z,69.60
2018-12-18T02:58:01.638Z,58.60
2018-12-18T03:00:29.557Z,65.32
2018-12-18T03:02:57.501Z,72.37
2018-12-18T03:05:25.423Z,72.50
2018-12-18T03:07:53.389Z,67.50
2018-12-18T03:10:21.394Z,61.42
2018-12-18T03:12:49.306Z,63.73
2018-12-18T03:15:17.217Z,65.65
2018-12-18T03:17:45.136Z,71.65
2018-12-18T03:20:13.065Z,79.53
2018-12-18T03:22:41.033Z,68.37
2018-12-18T03:25:08.986Z,59.05
2018-12-18T03:27:36.992Z,64.17
2018-12-18T03:30:05.162Z,61.37
2018-12-18T03:32:37.808Z,71.95
2018-12-18T03:35:05.752Z,62.83
2018-12-18T03:37:33.683Z,58.65
2018-12-18T03:40:01.634Z,66.25
2018-12-18T03:42:29.619Z,64.60
2018-12-18T03:44:57.545Z,60.98
2018-12-18T03:47:25.490Z,54.48
2018-12-18T03:49:53.388Z,63.40
2018-12-18T03:52:21.308Z,56.73
2018-12-18T03:54:49.257Z,69.72
2018-12-18T03:57:17.258Z,64.40
2018-12-18T03:59:45.293Z,55.48
2018-12-18T04:02:13.396Z,61.45
2018-12-18T04:04:41.306Z,65.22
2018-12-18T04:07:09.274Z,58.90
2018-12-18T04:09:37.281Z,75.87
2018-12-18T04:12:11.603Z,59.60
2018-12-18T04:14:39.543Z,59.50
2018-12-18T04:17:07.488Z,74.25
2018-12-18T04:19:35.453Z,65.57
2018-12-18T04:22:03.431Z,64.15
2018-12-18T04:24:31.362Z,64.53
2018-12-18T04:26:59.254Z,65.08
2018-12-18T04:29:27.265Z,59.27
2018-12-18T04:31:56.346Z,62.48
2018-12-18T04:34:24.262Z,61.88
2018-12-18T04:36:52.226Z,66.02
2018-12-18T04:39:20.391Z,77.27
2018-12-18T04:41:48.358Z,63.68
2018-12-18T04:44:16.325Z,61.20
2018-12-18T04:46:44.269Z,72.58
2018-12-18T04:49:12.217Z,68.02
2018-12-18T04:51:40.163Z,66.47
2018-12-18T04:54:08.137Z,75.28
2018-12-18T04:56:36.123Z,66.35
2018-12-18T04:59:04.079Z,58.85
2018-12-18T05:01:32.090Z,62.05
2018-12-18T05:04:00.015Z,70.28
2018-12-18T05:06:27.964Z,70.40
2018-12-18T05:08:55.970Z,58.87
2018-12-18T05:11:23.935Z,61.90
2018-12-18T05:13:51.894Z,58.90
2018-12-18T05:16:19.859Z,62.35
2018-12-18T05:18:47.804Z,61.15
2018-12-18T05:21:15.779Z,58.40
2018-12-18T05:23:43.697Z,56.80
2018-12-18T05:26:11.750Z,56.08
2018-12-18T05:28:39.679Z,55.40
2018-12-18T05:31:07.671Z,59.83
2018-12-18T05:33:35.711Z,48.70
2018-12-18T05:36:03.654Z,51.70
2018-12-18T05:38:31.580Z,51.23
2018-12-18T05:40:59.519Z,49.10
2018-12-18T05:43:28.596Z,49.35
2018-12-18T05:45:56.864Z,56.65
2018-12-18T05:48:24.857Z,55.60
2018-12-18T05:50:52.774Z,68.20
2018-12-18T05:53:20.701Z,67.32
2018-12-18T05:55:48.610Z,58.52
2018-12-18T05:58:16.559Z,61.53
2018-12-18T06:00:44.564Z,60.92
2018-12-18T06:03:12.590Z,60.00
2018-12-18T06:05:40.513Z,67.17
2018-12-18T06:08:08.503Z,75.47
2018-12-18T06:10:36.474Z,67.75
2018-12-18T06:13:04.410Z,65.78
2018-12-18T06:15:32.389Z,70.45
2018-12-18T06:18:00.330Z,62.15
2018-12-18T06:20:28.282Z,73.47
2018-12-18T06:22:56.184Z,72.85
2018-12-18T06:25:24.123Z,68.85
2018-12-18T06:27:52.103Z,79.87
2018-12-18T06:30:20.063Z,65.03
2018-12-18T06:32:48.119Z,59.77
2018-12-18T06:35:16.088Z,67.10
2018-12-18T06:37:44.025Z,55.85
2018-12-18T06:40:11.975Z,57.17
2018-12-18T06:42:39.913Z,61.37
2018-12-18T06:45:08.033Z,53.28
2018-12-18T06:47:35.959Z,48.10
2018-12-18T06:50:04.073Z,56.28
2018-12-18T06:52:32.011Z,60.85
2018-12-18T06:54:59.951Z,55.45
2018-12-18T06:57:27.923Z,50.17
2018-12-18T06:59:55.874Z,52.95
2018-12-18T07:02:23.839Z,51.00
2018-12-18T07:04:51.796Z,60.70
2018-12-18T07:07:19.806Z,56.77
2018-12-18T07:09:47.742Z,60.17
2018-12-18T07:12:15.769Z,52.08
2018-12-18T07:14:43.732Z,51.63
2018-12-18T07:17:11.679Z,46.42
2018-12-18T07:19:39.972Z,45.38
2018-12-18T07:22:07.890Z,47.93
2018-12-18T07:24:35.806Z,48.08
2018-12-18T07:27:03.861Z,41.45
2018-12-18T07:29:34.749Z,43.02
2018-12-18T07:32:02.692Z,42.00
2018-12-18T07:34:33.492Z,45.67
2018-12-18T07:37:00.616Z,47.13
2018-12-18T07:39:28.623Z,50.90
2018-12-18T07:41:56.573Z,46.70
2018-12-18T07:44:24.522Z,46.83
2018-12-18T07:46:52.499Z,45.13
2018-12-18T07:49:20.465Z,49.00
2018-12-18T07:51:48.389Z,42.10
2018-12-18T07:54:16.358Z,44.60
2018-12-18T07:56:44.286Z,44.13
2018-12-18T07:59:13.157Z,36.37
2018-12-18T08:01:41.178Z,36.37
2018-12-18T08:04:09.145Z,40.90
2018-12-18T08:06:37.137Z,40.30
2018-12-18T08:09:06.462Z,37.93
2018-12-18T08:11:34.394Z,41.47
2018-12-18T08:14:02.357Z,49.77
2018-12-18T08:16:30.268Z,44.83
2018-12-18T08:18:58.251Z,40.47
2018-12-18T08:21:26.176Z,40.60
2018-12-18T08:23:54.107Z,41.37
2018-12-18T08:26:22.060Z,41.50
2018-12-18T08:28:50.006Z,43.63
2018-12-18T08:31:17.942Z,42.40
2018-12-18T08:33:45.852Z,41.47
2018-12-18T08:36:13.833Z,40.87
2018-12-18T08:38:41.777Z,39.97
2018-12-18T08:41:09.751Z,37.57
2018-12-18T08:43:37.834Z,39.10
2018-12-18T08:46:10.190Z,41.73
2018-12-18T08:48:35.835Z,43.60
2018-12-18T08:51:03.765Z,39.67
2018-12-18T08:53:31.725Z,43.87
2018-12-18T08:56:00.685Z,39.03
2018-12-18T08:58:28.598Z,40.70
2018-12-18T09:00:56.622Z,39.70
2018-12-18T09:03:24.569Z,40.73
2018-12-18T09:05:52.497Z,39.73
2018-12-18T09:08:20.478Z,39.50
2018-12-18T09:10:48.436Z,37.23
2018-12-18T09:13:16.328Z,36.20
2018-12-18T09:15:49.766Z,34.87
2018-12-18T09:18:17.703Z,37.13
2018-12-18T09:20:45.661Z,36.37
2018-12-18T09:23:13.592Z,36.70
2018-12-18T09:25:41.663Z,36.63
2018-12-18T09:28:09.610Z,36.67
2018-12-18T09:30:42.521Z,33.53
2018-12-18T09:33:07.496Z,34.43
2018-12-18T09:35:35.470Z,31.37
2018-12-18T09:38:08.973Z,29.00
2018-12-18T09:40:42.624Z,30.53
2018-12-18T09:44:14.574Z,31.93
2018-12-18T09:46:42.578Z,34.20
2018-12-18T09:49:10.564Z,29.83
2018-12-18T09:51:38.739Z,36.23
2018-12-18T09:54:06.651Z,32.57
2018-12-18T09:56:40.126Z,29.87
2018-12-18T09:59:08.115Z,29.27
2018-12-18T10:01:36.103Z,32.93
2018-12-18T10:04:04.075Z,31.23
2018-12-18T10:06:32.086Z,29.70
2018-12-18T10:09:00.012Z,28.93
2018-12-18T10:11:27.976Z,32.50
2018-12-18T10:13:55.910Z,35.30
2018-12-18T10:16:23.856Z,26.07
2018-12-18T10:18:51.792Z,25.27
2018-12-18T10:21:19.749Z,36.40
2018-12-18T10:23:47.750Z,30.20
2018-12-18T10:26:15.687Z,27.80
2018-12-18T10:28:43.698Z,29.57
2018-12-18T10:31:11.730Z,26.50
2018-12-18T10:33:39.686Z,28.13
2018-12-18T10:36:07.738Z,32.27
2018-12-18T10:38:35.670Z,28.33
2018-12-18T10:41:03.718Z,25.30
2018-12-18T10:43:32.822Z,26.97
2018-12-18T10:46:00.741Z,26.50
2018-12-18T10:48:29.455Z,29.00
2018-12-18T10:50:57.474Z,31.83
2018-12-18T10:53:25.458Z,30.60
2018-12-18T10:55:53.398Z,31.27
2018-12-18T10:58:24.140Z,26.37
2018-12-18T11:00:56.981Z,32.47
2018-12-18T11:03:24.930Z,35.77
2018-12-18T11:05:52.857Z,29.93
2018-12-18T11:08:20.763Z,31.17
2018-12-18T11:10:48.753Z,36.00
2018-12-18T11:13:17.275Z,37.83
2018-12-18T11:15:45.578Z,37.97
2018-12-18T11:18:13.689Z,35.03
2018-12-18T11:20:41.614Z,37.17
2018-12-18T11:23:09.606Z,39.47
2018-12-18T11:25:37.550Z,41.67
2018-12-18T11:28:05.482Z,39.00
2018-12-18T11:30:33.399Z,39.70
2018-12-18T11:33:01.418Z,37.80
2018-12-18T11:35:29.309Z,42.00
2018-12-18T11:37:57.216Z,45.10
2018-12-18T11:40:25.188Z,39.27
2018-12-18T11:42:53.095Z,37.17
2018-12-18T11:45:21.156Z,51.00
2018-12-18T11:47:49.123Z,39.37
2018-12-18T11:50:17.040Z,37.43
2018-12-18T11:52:45.029Z,35.80
2018-12-18T11:55:13.054Z,34.60
2018-12-18T11:57:41.015Z,31.13
2018-12-18T12:00:11.437Z,37.30
2018-12-18T12:02:42.849Z,30.63
2018-12-18T12:05:11.425Z,34.03
2018-12-18T12:07:39.352Z,31.27
2018-12-18T12:10:07.508Z,29.47
2018-12-18T12:12:35.472Z,38.43
2018-12-18T12:15:04.764Z,34.33
2018-12-18T12:17:32.910Z,38.93
2018-12-18T12:20:00.875Z,38.87
2018-12-18T12:22:28.802Z,34.20
2018-12-18T12:24:56.830Z,30.17
2018-12-18T12:27:30.520Z,31.37
2018-12-18T12:29:58.471Z,33.27
2018-12-18T12:32:26.402Z,37.03
2018-12-18T12:34:54.508Z,32.80
2018-12-18T12:37:22.469Z,32.60
2018-12-18T12:39:50.416Z,34.80
2018-12-18T12:42:18.425Z,40.13
2018-12-18T12:44:46.359Z,37.47
2018-12-18T12:47:14.271Z,42.53
2018-12-18T12:49:44.127Z,41.80
2018-12-18T12:52:12.120Z,36.17
2018-12-18T12:54:40.088Z,35.57
2018-12-18T12:57:08.250Z,36.63
2018-12-18T12:59:36.287Z,32.60
2018-12-18T13:02:04.350Z,39.10
2018-12-18T13:04:32.356Z,36.13
2018-12-18T13:07:00.277Z,41.37
2018-12-18T13:09:28.243Z,33.20
2018-12-18T13:11:56.251Z,41.67
2018-12-18T13:14:24.183Z,33.87
2018-12-18T13:16:52.128Z,32.00
2018-12-18T13:19:20.072Z,37.50
2018-12-18T13:21:48.061Z,37.03
2018-12-18T13:24:15.980Z,35.97
2018-12-18T13:26:43.935Z,32.90
2018-12-18T13:29:11.900Z,32.37
2018-12-18T13:31:39.857Z,33.80
2018-12-18T13:34:07.803Z,37.83
2018-12-18T13:36:35.806Z,31.20
2018-12-18T13:39:05.517Z,40.93
2018-12-18T13:41:34.672Z,32.53
2018-12-18T13:44:02.695Z,31.13
2018-12-18T13:46:30.640Z,33.50
2018-12-18T13:48:58.542Z,36.90
2018-12-18T13:51:26.491Z,37.70
2018-12-18T13:53:54.421Z,33.70
2018-12-18T13:56:22.363Z,32.20
2018-12-18T13:58:50.300Z,36.77
2018-12-18T14:01:18.225Z,38.02
2018-12-18T14:03:46.137Z,32.70
2018-12-18T14:06:14.117Z,30.17
2018-12-18T14:08:42.094Z,36.53
2018-12-18T14:11:10.057Z,37.95
2018-12-18T14:13:38.003Z,46.10
2018-12-18T14:16:05.965Z,36.07
2018-12-18T14:18:34.056Z,37.88
2018-12-18T14:21:02.005Z,36.80
2018-12-18T14:23:29.971Z,39.13
2018-12-18T14:25:57.906Z,39.25
2018-12-18T14:28:25.827Z,37.55
2018-12-18T14:30:53.895Z,39.30
2018-12-18T14:33:21.874Z,38.13
2018-12-18T14:35:49.857Z,38.60
2018-12-18T14:38:17.820Z,34.27
2018-12-18T14:40:45.735Z,33.98
2018-12-18T14:43:13.686Z,40.70
2018-12-18T14:45:41.645Z,45.30
2018-12-18T14:48:09.590Z,43.75
2018-12-18T14:50:37.535Z,38.38
2018-12-18T14:53:05.498Z,39.08
2018-12-18T14:55:33.446Z,47.25
2018-12-18T14:58:01.404Z,43.65
2018-12-18T15:00:36.259Z,39.67
2018-12-18T15:03:04.240Z,38.98
2018-12-18T15:05:32.298Z,44.05
2018-12-18T15:08:00.243Z,42.73
2018-12-18T15:10:28.221Z,43.87
2018-12-18T15:12:56.157Z,51.42
2018-12-18T15:15:24.110Z,45.63
2018-12-18T15:17:52.086Z,44.53
2018-12-18T15:20:20.065Z,45.35
2018-12-18T15:22:48.029Z,47.20
2018-12-18T15:25:15.953Z,41.77
2018-12-18T15:27:43.905Z,43.02
2018-12-18T15:30:11.883Z,48.33
2018-12-18T15:32:39.865Z,41.23
2018-12-18T15:35:07.855Z,41.35
2018-12-18T15:37:36.247Z,42.88
2018-12-18T15:40:04.497Z,38.63
2018-12-18T15:42:32.446Z,41.40
2018-12-18T15:45:00.464Z,42.85
2018-12-18T15:47:28.453Z,40.43
2018-12-18T15:49:56.425Z,42.30
2018-12-18T15:52:24.425Z,59.88
2018-12-18T15:54:52.419Z,87.17
2018-12-18T15:57:20.393Z,90.38
2018-12-18T15:59:48.454Z,67.75
2018-12-18T16:02:16.563Z,60.20
2018-12-18T16:04:44.523Z,54.95
2018-12-18T16:07:16.168Z,56.10
2018-12-18T16:09:42.465Z,49.55
2018-12-18T16:12:10.571Z,58.65
2018-12-18T16:14:38.561Z,47.83
2018-12-18T16:17:13.383Z,38.45
2018-12-18T16:19:41.426Z,42.40
2018-12-18T16:22:09.392Z,43.50
2018-12-18T16:24:37.333Z,41.48
2018-12-18T16:27:05.270Z,43.80
2018-12-18T16:29:33.238Z,43.48
2018-12-18T16:32:01.149Z,46.75
2018-12-18T16:34:29.117Z,42.27
2018-12-18T16:36:57.144Z,34.30
2018-12-18T16:39:25.103Z,43.58
2018-12-18T16:41:53.109Z,41.50
2018-12-18T16:44:21.017Z,36.23
2018-12-18T16:46:50.059Z,37.28
2018-12-18T16:49:18.059Z,37.50
2018-12-18T16:51:46.070Z,33.25
2018-12-18T16:54:14.419Z,38.70
2018-12-18T16:56:43.111Z,33.90
2018-12-18T16:59:11.085Z,34.45
2018-12-18T17:01:38.995Z,36.08
2018-12-18T17:04:06.967Z,36.17
2018-12-18T17:06:35.298Z,32.90
2018-12-18T17:09:05.182Z,40.05
2018-12-18T17:11:34.295Z,32.15
2018-12-18T17:14:02.505Z,29.95
2018-12-18T17:16:31.416Z,27.30
2018-12-18T17:18:59.405Z,29.60
2018-12-18T17:21:27.354Z,28.67
2018-12-18T17:23:55.323Z,27.17
2018-12-18T17:26:23.458Z,35.15
2018-12-18T17:28:51.367Z,27.07
2018-12-18T17:31:19.307Z,31.15
2018-12-18T17:33:47.246Z,30.35
2018-12-18T17:36:15.168Z,31.35
2018-12-18T17:38:43.125Z,32.67
2018-12-18T17:41:11.297Z,36.70
2018-12-18T17:43:39.857Z,31.35
2018-12-18T17:46:07.797Z,34.85
2018-12-18T17:48:35.821Z,32.80
2018-12-18T17:51:03.899Z,36.63
2018-12-18T17:53:33.227Z,28.57
2018-12-18T17:56:01.241Z,28.02
2018-12-18T17:58:29.137Z,35.90
2018-12-18T18:00:57.118Z,32.78
2018-12-18T18:03:25.085Z,34.48
2018-12-18T18:05:53.061Z,31.87
2018-12-18T18:08:21.086Z,34.40
2018-12-18T18:10:49.080Z,35.95
2018-12-18T18:13:17.025Z,31.10
2018-12-18T18:15:44.952Z,36.05
2018-12-18T18:18:12.949Z,39.98
2018-12-18T18:20:40.946Z,34.55
2018-12-18T18:23:08.923Z,33.73
2018-12-18T18:25:36.918Z,31.70
2018-12-18T18:28:04.867Z,28.70
2018-12-18T18:30:32.846Z,36.17
2018-12-18T18:33:00.858Z,31.37
2018-12-18T18:35:28.846Z,39.35
2018-12-18T18:37:56.814Z,33.08
2018-12-18T18:40:24.769Z,38.85
2018-12-18T18:42:53.052Z,34.78
2018-12-18T18:45:21.126Z,32.30
2018-12-18T18:47:49.223Z,32.55
2018-12-18T18:50:17.252Z,42.13
2018-12-18T18:52:45.289Z,33.15
2018-12-18T18:55:13.398Z,32.90
2018-12-18T18:57:41.482Z,32.83
2018-12-18T19:00:09.572Z,31.30
2018-12-18T19:02:37.690Z,32.05
2018-12-18T19:05:05.814Z,35.45
2018-12-18T19:07:33.842Z,34.25
2018-12-18T19:10:01.971Z,35.00
2018-12-18T19:12:30.299Z,39.18
2018-12-18T19:14:58.421Z,35.40
2018-12-18T19:17:26.837Z,39.42
2018-12-18T19:19:55.039Z,39.30
2018-12-18T19:22:23.116Z,41.25
2018-12-18T19:24:51.076Z,36.75
2018-12-18T19:27:19.179Z,34.90
2018-12-18T19:29:47.234Z,44.53
2018-12-18T19:32:15.305Z,38.70
2018-12-18T19:34:43.657Z,42.15
2018-12-18T19:37:12.882Z,41.20
2018-12-18T19:39:41.090Z,39.18
2018-12-18T19:42:09.262Z,34.95
2018-12-18T19:44:37.692Z,42.60
2018-12-18T19:47:05.742Z,39.83
2018-12-18T19:49:33.756Z,35.03
2018-12-18T19:52:01.814Z,36.77
2018-12-18T19:54:30.404Z,37.95
2018-12-18T19:56:58.490Z,36.88
2018-12-18T19:59:26.528Z,44.27
2018-12-18T20:01:54.530Z,40.85
2018-12-18T20:04:22.552Z,52.40
2018-12-18T20:06:50.679Z,45.03
2018-12-18T20:09:18.762Z,45.28
2018-12-18T20:11:47.032Z,41.33
2018-12-18T20:14:15.125Z,42.38
2018-12-18T20:16:43.224Z,35.52
2018-12-18T20:19:11.391Z,40.80
2018-12-18T20:21:39.962Z,49.55
2018-12-18T20:24:08.238Z,54.08
2018-12-18T20:26:36.604Z,44.35
2018-12-18T20:29:04.653Z,50.92
2018-12-18T20:31:32.640Z,49.25
2018-12-18T20:34:00.760Z,53.10
2018-12-18T20:36:29.851Z,44.90
2018-12-18T20:38:57.974Z,48.60
2018-12-18T20:41:26.027Z,54.73
2018-12-18T20:43:54.060Z,50.90
2018-12-18T20:46:22.022Z,52.08
2018-12-18T20:48:50.271Z,52.10
2018-12-18T20:51:18.331Z,49.53
2018-12-18T20:53:46.437Z,45.78
2018-12-18T20:56:14.532Z,45.90
2018-12-18T20:58:42.611Z,39.42
2018-12-18T21:01:10.742Z,50.65
2018-12-18T21:03:38.844Z,40.10
2018-12-18T21:06:06.978Z,43.05
2018-12-18T21:08:35.066Z,41.60
2018-12-18T21:11:03.173Z,56.50
2018-12-18T21:13:31.616Z,55.25
2018-12-18T21:15:59.693Z,52.85
2018-12-18T21:18:28.992Z,53.38
2018-12-18T21:20:58.087Z,46.10
2018-12-18T21:23:26.102Z,54.13
2018-12-18T21:25:54.055Z,53.00
2018-12-18T21:28:22.046Z,48.05
2018-12-18T21:30:50.045Z,44.15
2018-12-18T21:33:18.019Z,50.28
2018-12-18T21:35:49.898Z,50.52
2018-12-18T21:38:18.328Z,49.05
2018-12-18T21:40:46.317Z,48.10
2018-12-18T21:43:14.458Z,58.05
2018-12-18T21:45:42.642Z,45.55
2018-12-18T21:48:10.886Z,52.08
2018-12-18T21:50:39.022Z,43.98
2018-12-18T21:53:07.151Z,52.15
2018-12-18T21:55:35.309Z,50.00
2018-12-18T21:58:03.468Z,46.37
2018-12-18T22:00:31.584Z,50.35
2018-12-18T22:02:59.684Z,47.25
2018-12-18T22:05:27.892Z,41.90
2018-12-18T22:07:56.130Z,54.35
2018-12-18T22:10:24.845Z,48.92
2018-12-18T22:12:52.985Z,44.25
2018-12-18T22:15:21.531Z,50.73
2018-12-18T22:17:49.688Z,52.70
2018-12-18T22:20:18.545Z,46.70
2018-12-18T22:22:48.336Z,49.20
2018-12-18T22:25:16.673Z,43.98
2018-12-18T22:27:45.785Z,42.83
2018-12-18T22:30:14.373Z,42.05
2018-12-18T22:32:42.463Z,37.45
2018-12-18T22:35:10.679Z,49.88
2018-12-18T22:37:38.830Z,51.85
2018-12-18T22:40:06.954Z,46.63
2018-12-18T22:42:35.076Z,47.88
2018-12-18T22:45:03.203Z,46.55
2018-12-18T22:47:31.266Z,45.92
2018-12-18T22:49:59.655Z,48.90
2018-12-18T22:52:27.888Z,49.70
2018-12-18T22:54:56.121Z,45.35
2018-12-18T22:57:24.262Z,49.80
2018-12-18T22:59:52.250Z,53.85
2018-12-18T23:02:20.163Z,56.10
2018-12-18T23:04:48.476Z,48.55
2018-12-18T23:07:16.436Z,48.55
2018-12-18T23:09:45.590Z,48.80
2018-12-18T23:12:13.567Z,46.80
2018-12-18T23:14:41.478Z,51.65
2018-12-18T23:17:09.647Z,48.35
2018-12-18T23:19:37.638Z,50.25
2018-12-18T23:22:05.595Z,47.75
2018-12-18T23:24:33.596Z,47.95
2018-12-18T23:27:13.493Z,42.60
2018-12-18T23:29:41.419Z,51.02
2018-12-18T23:32:09.390Z,51.73
2018-12-18T23:34:37.332Z,59.10
2018-12-18T23:37:05.230Z,61.73
2018-12-18T23:39:33.170Z,59.55
2018-12-18T23:42:01.240Z,64.77
2018-12-18T23:44:29.156Z,61.15
2018-12-18T23:46:57.079Z,71.07
2018-12-18T23:49:26.194Z,56.50
2018-12-18T23:51:54.187Z,55.35
2018-12-18T23:54:22.149Z,57.33
2018-12-18T23:56:50.111Z,51.23
2018-12-18T23:59:18.030Z,51.80
